sensor_id;sensor_type;location;lat;lon;timestamp;P1;durP1;ratioP1;P2;durP2;ratioP2
61569;SDS011;47462;59.172;17.196;2022-11-14T00:02:21;6.03;;;2.40;;
61569;SDS011;47462;59.172;17.196;2022-11-14T00:04:47;3.70;;;2.40;;
61569;SDS011;47462;59.172;17.196;2022-11-14T00:07:13;3.05;;;2.30;;
61569;SDS011;47462;59.172;17.196;2022-11-14T00:09:39;2.53;;;1.50;;
61569;SDS011;47462;59.172;17.196;2022-11-14T00:12:07;3.83;;;1.90;;
61569;SDS011;47462;59.172;17.196;2022-11-14T00:14:33;2.70;;;1.88;;
61569;SDS011;47462;59.172;17.196;2022-11-14T00:16:58;2.15;;;1.58;;
61569;SDS011;47462;59.172;17.196;2022-11-14T00:19:24;6.60;;;1.97;;
61569;SDS011;47462;59.172;17.196;2022-11-14T00:21:49;1.30;;;1.00;;
61569;SDS011;47462;59.172;17.196;2022-11-14T00:24:17;2.58;;;1.40;;
61569;SDS011;47462;59.172;17.196;2022-11-14T00:26:42;1.87;;;1.37;;
61569;SDS011;47462;59.172;17.196;2022-11-14T00:29:09;1.87;;;1.50;;
61569;SDS011;47462;59.172;17.196;2022-11-14T00:31:35;1.10;;;0.90;;
61569;SDS011;47462;59.172;17.196;2022-11-14T00:34:00;1.33;;;1.20;;
61569;SDS011;47462;59.172;17.196;2022-11-14T00:36:25;1.10;;;1.00;;
61569;SDS011;47462;59.172;17.196;2022-11-14T00:38:52;1.53;;;0.83;;
61569;SDS011;47462;59.172;17.196;2022-11-14T00:41:18;1.95;;;1.00;;
61569;SDS011;47462;59.172;17.196;2022-11-14T00:43:44;1.00;;;0.85;;
61569;SDS011;47462;59.172;17.196;2022-11-14T00:46:09;0.77;;;0.77;;
61569;SDS011;47462;59.172;17.196;2022-11-14T00:48:35;2.37;;;0.80;;
61569;SDS011;47462;59.172;17.196;2022-11-14T00:51:00;1.13;;;0.70;;
61569;SDS011;47462;59.172;17.196;2022-11-14T00:53:26;0.80;;;0.70;;
61569;SDS011;47462;59.172;17.196;2022-11-14T00:55:51;1.80;;;0.50;;
61569;SDS011;47462;59.172;17.196;2022-11-14T00:58:16;1.87;;;1.03;;
61569;SDS011;47462;59.172;17.196;2022-11-14T01:00:42;0.88;;;0.77;;
61569;SDS011;47462;59.172;17.196;2022-11-14T01:03:07;0.87;;;0.67;;
61569;SDS011;47462;59.172;17.196;2022-11-14T01:05:33;0.93;;;0.60;;
61569;SDS011;47462;59.172;17.196;2022-11-14T01:08:04;1.33;;;0.85;;
61569;SDS011;47462;59.172;17.196;2022-11-14T01:10:29;0.60;;;0.50;;
61569;SDS011;47462;59.172;17.196;2022-11-14T01:12:54;1.13;;;0.60;;
61569;SDS011;47462;59.172;17.196;2022-11-14T01:15:20;1.08;;;1.00;;
61569;SDS011;47462;59.172;17.196;2022-11-14T01:17:45;1.60;;;0.70;;
61569;SDS011;47462;59.172;17.196;2022-11-14T01:20:11;2.70;;;0.77;;
61569;SDS011;47462;59.172;17.196;2022-11-14T01:22:36;2.10;;;0.80;;
61569;SDS011;47462;59.172;17.196;2022-11-14T01:25:02;0.70;;;0.60;;
61569;SDS011;47462;59.172;17.196;2022-11-14T01:27:30;1.15;;;0.75;;
61569;SDS011;47462;59.172;17.196;2022-11-14T01:29:55;1.85;;;0.70;;
61569;SDS011;47462;59.172;17.196;2022-11-14T01:32:21;1.60;;;0.67;;
61569;SDS011;47462;59.172;17.196;2022-11-14T01:34:46;0.90;;;0.70;;
61569;SDS011;47462;59.172;17.196;2022-11-14T01:37:12;1.17;;;0.70;;
61569;SDS011;47462;59.172;17.196;2022-11-14T01:39:37;1.35;;;0.60;;
61569;SDS011;47462;59.172;17.196;2022-11-14T01:42:02;1.87;;;0.60;;
61569;SDS011;47462;59.172;17.196;2022-11-14T01:44:45;0.93;;;0.90;;
61569;SDS011;47462;59.172;17.196;2022-11-14T01:47:12;1.58;;;1.13;;
61569;SDS011;47462;59.172;17.196;2022-11-14T01:49:44;6.13;;;1.40;;
61569;SDS011;47462;59.172;17.196;2022-11-14T01:54:43;37.25;;;1.55;;
61569;SDS011;47462;59.172;17.196;2022-11-14T01:57:12;20.38;;;1.27;;
61569;SDS011;47462;59.172;17.196;2022-11-14T01:59:43;5.72;;;0.98;;
61569;SDS011;47462;59.172;17.196;2022-11-14T02:02:20;1.42;;;0.77;;
61569;SDS011;47462;59.172;17.196;2022-11-14T02:04:52;1.52;;;0.90;;
61569;SDS011;47462;59.172;17.196;2022-11-14T02:07:21;1.73;;;0.80;;
61569;SDS011;47462;59.172;17.196;2022-11-14T02:09:49;1.33;;;0.98;;
61569;SDS011;47462;59.172;17.196;2022-11-14T02:12:15;1.13;;;0.73;;
61569;SDS011;47462;59.172;17.196;2022-11-14T02:14:43;0.88;;;0.70;;
61569;SDS011;47462;59.172;17.196;2022-11-14T02:17:11;7.50;;;0.98;;
61569;SDS011;47462;59.172;17.196;2022-11-14T02:19:48;3.22;;;0.80;;
61569;SDS011;47462;59.172;17.196;2022-11-14T02:22:18;10.55;;;1.13;;
61569;SDS011;47462;59.172;17.196;2022-11-14T02:24:44;2.73;;;1.03;;
61569;SDS011;47462;59.172;17.196;2022-11-14T02:27:10;2.95;;;0.90;;
61569;SDS011;47462;59.172;17.196;2022-11-14T02:29:38;1.70;;;1.05;;
61569;SDS011;47462;59.172;17.196;2022-11-14T02:32:03;6.18;;;1.08;;
61569;SDS011;47462;59.172;17.196;2022-11-14T02:34:29;1.25;;;1.05;;
61569;SDS011;47462;59.172;17.196;2022-11-14T02:36:55;138.27;;;4.33;;
61569;SDS011;47462;59.172;17.196;2022-11-14T02:39:21;116.97;;;3.95;;
61569;SDS011;47462;59.172;17.196;2022-11-14T02:41:46;11.70;;;1.53;;
61569;SDS011;47462;59.172;17.196;2022-11-14T02:44:11;33.90;;;1.90;;
61569;SDS011;47462;59.172;17.196;2022-11-14T02:46:37;104.93;;;4.57;;
61569;SDS011;47462;59.172;17.196;2022-11-14T02:49:02;72.97;;;3.22;;
61569;SDS011;47462;59.172;17.196;2022-11-14T02:51:28;91.53;;;3.77;;
61569;SDS011;47462;59.172;17.196;2022-11-14T02:53:53;8.33;;;1.70;;
61569;SDS011;47462;59.172;17.196;2022-11-14T02:56:18;4.97;;;1.83;;
61569;SDS011;47462;59.172;17.196;2022-11-14T02:58:44;2.70;;;1.53;;
61569;SDS011;47462;59.172;17.196;2022-11-14T03:01:09;3.73;;;1.93;;
61569;SDS011;47462;59.172;17.196;2022-11-14T03:03:35;2.90;;;1.40;;
61569;SDS011;47462;59.172;17.196;2022-11-14T03:06:01;3.83;;;1.83;;
61569;SDS011;47462;59.172;17.196;2022-11-14T03:08:27;2.67;;;1.80;;
61569;SDS011;47462;59.172;17.196;2022-11-14T03:10:52;67.78;;;3.50;;
61569;SDS011;47462;59.172;17.196;2022-11-14T03:13:18;62.08;;;3.60;;
61569;SDS011;47462;59.172;17.196;2022-11-14T03:15:44;8.53;;;2.37;;
61569;SDS011;47462;59.172;17.196;2022-11-14T03:18:09;28.10;;;3.10;;
61569;SDS011;47462;59.172;17.196;2022-11-14T03:20:35;4.70;;;2.27;;
61569;SDS011;47462;59.172;17.196;2022-11-14T03:23:00;11.50;;;2.60;;
61569;SDS011;47462;59.172;17.196;2022-11-14T03:25:26;2.63;;;1.80;;
61569;SDS011;47462;59.172;17.196;2022-11-14T03:27:51;3.20;;;1.93;;
61569;SDS011;47462;59.172;17.196;2022-11-14T03:30:16;6.27;;;1.90;;
61569;SDS011;47462;59.172;17.196;2022-11-14T03:32:42;5.63;;;2.17;;
61569;SDS011;47462;59.172;17.196;2022-11-14T03:35:08;16.92;;;2.70;;
61569;SDS011;47462;59.172;17.196;2022-11-14T03:39:59;13.82;;;2.60;;
61569;SDS011;47462;59.172;17.196;2022-11-14T03:42:25;6.85;;;2.13;;
61569;SDS011;47462;59.172;17.196;2022-11-14T03:44:50;6.50;;;2.03;;
61569;SDS011;47462;59.172;17.196;2022-11-14T03:47:15;4.33;;;1.50;;
61569;SDS011;47462;59.172;17.196;2022-11-14T03:49:41;2.90;;;1.50;;
61569;SDS011;47462;59.172;17.196;2022-11-14T03:52:08;2.30;;;1.38;;
61569;SDS011;47462;59.172;17.196;2022-11-14T03:54:35;1.58;;;1.17;;
61569;SDS011;47462;59.172;17.196;2022-11-14T03:57:00;4.93;;;0.90;;
61569;SDS011;47462;59.172;17.196;2022-11-14T03:59:25;2.80;;;0.97;;
61569;SDS011;47462;59.172;17.196;2022-11-14T04:01:51;3.60;;;0.90;;
61569;SDS011;47462;59.172;17.196;2022-11-14T04:04:16;4.57;;;0.90;;
61569;SDS011;47462;59.172;17.196;2022-11-14T04:06:41;4.60;;;0.90;;
61569;SDS011;47462;59.172;17.196;2022-11-14T04:09:08;5.60;;;1.00;;
61569;SDS011;47462;59.172;17.196;2022-11-14T04:11:34;2.10;;;0.70;;
61569;SDS011;47462;59.172;17.196;2022-11-14T04:13:59;4.33;;;0.80;;
61569;SDS011;47462;59.172;17.196;2022-11-14T04:16:25;3.67;;;0.80;;
61569;SDS011;47462;59.172;17.196;2022-11-14T04:18:50;3.08;;;0.80;;
61569;SDS011;47462;59.172;17.196;2022-11-14T04:21:16;12.10;;;8.13;;
61569;SDS011;47462;59.172;17.196;2022-11-14T04:23:41;6.43;;;3.33;;
61569;SDS011;47462;59.172;17.196;2022-11-14T04:26:06;11.10;;;9.03;;
61569;SDS011;47462;59.172;17.196;2022-11-14T04:28:32;4.37;;;2.33;;
61569;SDS011;47462;59.172;17.196;2022-11-14T04:30:57;4.47;;;4.03;;
61569;SDS011;47462;59.172;17.196;2022-11-14T04:33:24;8.20;;;6.55;;
61569;SDS011;47462;59.172;17.196;2022-11-14T04:35:50;10.23;;;6.43;;
61569;SDS011;47462;59.172;17.196;2022-11-14T04:38:15;3.47;;;2.07;;
61569;SDS011;47462;59.172;17.196;2022-11-14T04:40:46;1.40;;;0.60;;
61569;SDS011;47462;59.172;17.196;2022-11-14T04:43:15;2.70;;;0.68;;
61569;SDS011;47462;59.172;17.196;2022-11-14T04:45:40;5.33;;;0.67;;
61569;SDS011;47462;59.172;17.196;2022-11-14T04:48:06;3.65;;;0.60;;
61569;SDS011;47462;59.172;17.196;2022-11-14T04:50:31;4.73;;;1.40;;
61569;SDS011;47462;59.172;17.196;2022-11-14T04:52:57;3.70;;;2.00;;
61569;SDS011;47462;59.172;17.196;2022-11-14T04:55:22;3.10;;;0.85;;
61569;SDS011;47462;59.172;17.196;2022-11-14T04:57:52;3.67;;;1.20;;
61569;SDS011;47462;59.172;17.196;2022-11-14T05:00:21;3.60;;;0.85;;
61569;SDS011;47462;59.172;17.196;2022-11-14T05:02:46;8.52;;;1.48;;
61569;SDS011;47462;59.172;17.196;2022-11-14T05:05:12;5.83;;;1.73;;
61569;SDS011;47462;59.172;17.196;2022-11-14T05:07:37;5.10;;;0.87;;
61569;SDS011;47462;59.172;17.196;2022-11-14T05:10:03;9.32;;;1.48;;
61569;SDS011;47462;59.172;17.196;2022-11-14T05:12:29;8.02;;;1.75;;
61569;SDS011;47462;59.172;17.196;2022-11-14T05:14:55;12.00;;;1.98;;
61569;SDS011;47462;59.172;17.196;2022-11-14T05:17:20;7.40;;;2.53;;
61569;SDS011;47462;59.172;17.196;2022-11-14T05:19:45;8.67;;;3.07;;
61569;SDS011;47462;59.172;17.196;2022-11-14T05:22:11;7.23;;;3.23;;
61569;SDS011;47462;59.172;17.196;2022-11-14T05:24:36;9.95;;;2.72;;
61569;SDS011;47462;59.172;17.196;2022-11-14T05:27:02;7.93;;;3.07;;
61569;SDS011;47462;59.172;17.196;2022-11-14T05:29:27;8.32;;;3.38;;
61569;SDS011;47462;59.172;17.196;2022-11-14T05:31:52;8.43;;;2.95;;
61569;SDS011;47462;59.172;17.196;2022-11-14T05:34:18;9.77;;;3.30;;
61569;SDS011;47462;59.172;17.196;2022-11-14T05:36:43;11.77;;;3.00;;
61569;SDS011;47462;59.172;17.196;2022-11-14T05:39:09;10.02;;;2.22;;
61569;SDS011;47462;59.172;17.196;2022-11-14T05:41:34;7.60;;;2.10;;
61569;SDS011;47462;59.172;17.196;2022-11-14T05:43:59;7.97;;;2.00;;
61569;SDS011;47462;59.172;17.196;2022-11-14T05:46:25;9.23;;;2.70;;
61569;SDS011;47462;59.172;17.196;2022-11-14T05:48:50;6.80;;;2.07;;
61569;SDS011;47462;59.172;17.196;2022-11-14T05:51:15;9.20;;;2.60;;
61569;SDS011;47462;59.172;17.196;2022-11-14T05:53:41;8.10;;;2.53;;
61569;SDS011;47462;59.172;17.196;2022-11-14T05:56:08;5.43;;;2.60;;
61569;SDS011;47462;59.172;17.196;2022-11-14T05:58:35;10.18;;;3.15;;
61569;SDS011;47462;59.172;17.196;2022-11-14T06:01:02;8.60;;;3.05;;
61569;SDS011;47462;59.172;17.196;2022-11-14T06:03:31;13.95;;;3.72;;
61569;SDS011;47462;59.172;17.196;2022-11-14T06:05:59;11.98;;;2.83;;
61569;SDS011;47462;59.172;17.196;2022-11-14T06:08:28;4.95;;;1.30;;
61569;SDS011;47462;59.172;17.196;2022-11-14T06:10:55;7.35;;;1.45;;
61569;SDS011;47462;59.172;17.196;2022-11-14T06:13:20;7.30;;;1.40;;
61569;SDS011;47462;59.172;17.196;2022-11-14T06:15:48;7.47;;;1.48;;
61569;SDS011;47462;59.172;17.196;2022-11-14T06:20:39;7.47;;;2.63;;
61569;SDS011;47462;59.172;17.196;2022-11-14T06:23:05;8.27;;;3.20;;
61569;SDS011;47462;59.172;17.196;2022-11-14T06:25:30;4.93;;;2.07;;
61569;SDS011;47462;59.172;17.196;2022-11-14T06:27:57;6.07;;;1.60;;
61569;SDS011;47462;59.172;17.196;2022-11-14T06:30:22;4.85;;;1.23;;
61569;SDS011;47462;59.172;17.196;2022-11-14T06:32:48;2.83;;;1.57;;
61569;SDS011;47462;59.172;17.196;2022-11-14T06:35:13;4.10;;;1.60;;
61569;SDS011;47462;59.172;17.196;2022-11-14T06:37:39;6.03;;;1.70;;
61569;SDS011;47462;59.172;17.196;2022-11-14T06:40:04;6.33;;;1.60;;
61569;SDS011;47462;59.172;17.196;2022-11-14T06:42:30;8.57;;;2.08;;
61569;SDS011;47462;59.172;17.196;2022-11-14T06:44:55;3.97;;;1.60;;
61569;SDS011;47462;59.172;17.196;2022-11-14T06:47:21;3.40;;;1.40;;
61569;SDS011;47462;59.172;17.196;2022-11-14T06:49:46;3.10;;;1.57;;
61569;SDS011;47462;59.172;17.196;2022-11-14T06:52:12;3.83;;;1.83;;
61569;SDS011;47462;59.172;17.196;2022-11-14T06:54:37;3.08;;;1.67;;
61569;SDS011;47462;59.172;17.196;2022-11-14T06:57:02;4.03;;;1.60;;
61569;SDS011;47462;59.172;17.196;2022-11-14T06:59:28;4.18;;;1.30;;
61569;SDS011;47462;59.172;17.196;2022-11-14T07:01:53;3.45;;;1.50;;
61569;SDS011;47462;59.172;17.196;2022-11-14T07:04:19;4.17;;;1.53;;
61569;SDS011;47462;59.172;17.196;2022-11-14T07:06:44;1.60;;;1.50;;
61569;SDS011;47462;59.172;17.196;2022-11-14T07:09:09;5.60;;;1.43;;
61569;SDS011;47462;59.172;17.196;2022-11-14T07:11:35;2.15;;;1.20;;
61569;SDS011;47462;59.172;17.196;2022-11-14T07:14:02;1.58;;;1.30;;
61569;SDS011;47462;59.172;17.196;2022-11-14T07:16:28;2.13;;;1.35;;
61569;SDS011;47462;59.172;17.196;2022-11-14T07:18:56;2.22;;;1.20;;
61569;SDS011;47462;59.172;17.196;2022-11-14T07:21:22;2.28;;;1.52;;
61569;SDS011;47462;59.172;17.196;2022-11-14T07:23:49;4.53;;;1.90;;
61569;SDS011;47462;59.172;17.196;2022-11-14T07:26:14;3.63;;;1.50;;
61569;SDS011;47462;59.172;17.196;2022-11-14T07:28:40;4.40;;;1.73;;
61569;SDS011;47462;59.172;17.196;2022-11-14T07:31:17;2.95;;;1.42;;
61569;SDS011;47462;59.172;17.196;2022-11-14T07:33:44;1.92;;;1.40;;
61569;SDS011;47462;59.172;17.196;2022-11-14T07:36:11;4.10;;;1.60;;
61569;SDS011;47462;59.172;17.196;2022-11-14T07:38:37;3.40;;;1.60;;
61569;SDS011;47462;59.172;17.196;2022-11-14T07:41:05;2.63;;;1.80;;
61569;SDS011;47462;59.172;17.196;2022-11-14T07:43:32;3.42;;;1.75;;
61569;SDS011;47462;59.172;17.196;2022-11-14T07:45:58;2.75;;;1.30;;
61569;SDS011;47462;59.172;17.196;2022-11-14T07:48:28;2.30;;;1.42;;
61569;SDS011;47462;59.172;17.196;2022-11-14T07:51:00;4.28;;;1.50;;
61569;SDS011;47462;59.172;17.196;2022-11-14T07:53:27;2.42;;;1.77;;
61569;SDS011;47462;59.172;17.196;2022-11-14T07:55:53;3.45;;;2.17;;
61569;SDS011;47462;59.172;17.196;2022-11-14T07:58:19;4.82;;;2.22;;
61569;SDS011;47462;59.172;17.196;2022-11-14T08:00:45;1.83;;;1.63;;
61569;SDS011;47462;59.172;17.196;2022-11-14T08:03:10;3.20;;;1.70;;
61569;SDS011;47462;59.172;17.196;2022-11-14T08:05:36;7.47;;;2.20;;
61569;SDS011;47462;59.172;17.196;2022-11-14T08:08:01;4.47;;;2.10;;
61569;SDS011;47462;59.172;17.196;2022-11-14T08:10:27;2.53;;;2.00;;
61569;SDS011;47462;59.172;17.196;2022-11-14T08:12:57;1.75;;;1.40;;
61569;SDS011;47462;59.172;17.196;2022-11-14T08:15:24;3.72;;;1.67;;
61569;SDS011;47462;59.172;17.196;2022-11-14T08:17:51;9.75;;;2.70;;
61569;SDS011;47462;59.172;17.196;2022-11-14T08:20:16;6.10;;;1.67;;
61569;SDS011;47462;59.172;17.196;2022-11-14T08:22:42;2.83;;;1.67;;
61569;SDS011;47462;59.172;17.196;2022-11-14T08:25:08;2.70;;;1.85;;
61569;SDS011;47462;59.172;17.196;2022-11-14T08:27:33;2.58;;;1.70;;
61569;SDS011;47462;59.172;17.196;2022-11-14T08:29:59;2.47;;;1.55;;
61569;SDS011;47462;59.172;17.196;2022-11-14T08:32:24;160.30;;;5.75;;
61569;SDS011;47462;59.172;17.196;2022-11-14T08:34:50;6.87;;;1.80;;
61569;SDS011;47462;59.172;17.196;2022-11-14T08:37:15;1.83;;;1.30;;
61569;SDS011;47462;59.172;17.196;2022-11-14T08:39:41;6.38;;;1.40;;
61569;SDS011;47462;59.172;17.196;2022-11-14T08:42:06;4.20;;;1.20;;
61569;SDS011;47462;59.172;17.196;2022-11-14T08:44:32;3.83;;;1.60;;
61569;SDS011;47462;59.172;17.196;2022-11-14T08:46:57;18.57;;;1.67;;
61569;SDS011;47462;59.172;17.196;2022-11-14T08:49:24;4.38;;;1.30;;
61569;SDS011;47462;59.172;17.196;2022-11-14T08:51:53;4.85;;;1.52;;
61569;SDS011;47462;59.172;17.196;2022-11-14T08:54:19;6.40;;;1.17;;
61569;SDS011;47462;59.172;17.196;2022-11-14T08:56:45;1.98;;;0.85;;
61569;SDS011;47462;59.172;17.196;2022-11-14T08:59:10;6.57;;;0.85;;
61569;SDS011;47462;59.172;17.196;2022-11-14T09:01:35;1.43;;;1.03;;
61569;SDS011;47462;59.172;17.196;2022-11-14T09:04:01;1.00;;;0.70;;
61569;SDS011;47462;59.172;17.196;2022-11-14T09:06:26;0.80;;;0.70;;
61569;SDS011;47462;59.172;17.196;2022-11-14T09:08:52;0.80;;;0.73;;
61569;SDS011;47462;59.172;17.196;2022-11-14T09:11:18;1.20;;;0.90;;
61569;SDS011;47462;59.172;17.196;2022-11-14T09:13:43;0.90;;;0.77;;
61569;SDS011;47462;59.172;17.196;2022-11-14T09:16:09;5.63;;;0.80;;
61569;SDS011;47462;59.172;17.196;2022-11-14T09:18:34;2.37;;;0.87;;
61569;SDS011;47462;59.172;17.196;2022-11-14T09:21:03;1.85;;;0.70;;
61569;SDS011;47462;59.172;17.196;2022-11-14T09:23:31;1.30;;;0.93;;
61569;SDS011;47462;59.172;17.196;2022-11-14T09:25:57;1.52;;;1.00;;
61569;SDS011;47462;59.172;17.196;2022-11-14T09:28:26;1.77;;;0.75;;
61569;SDS011;47462;59.172;17.196;2022-11-14T09:30:52;3.13;;;0.80;;
61569;SDS011;47462;59.172;17.196;2022-11-14T09:33:17;1.47;;;0.80;;
61569;SDS011;47462;59.172;17.196;2022-11-14T09:35:43;1.40;;;0.90;;
61569;SDS011;47462;59.172;17.196;2022-11-14T09:38:09;1.38;;;0.80;;
61569;SDS011;47462;59.172;17.196;2022-11-14T09:43:32;1.25;;;0.95;;
61569;SDS011;47462;59.172;17.196;2022-11-14T09:49:36;1.92;;;0.70;;
61569;SDS011;47462;59.172;17.196;2022-11-14T09:55:11;0.70;;;0.70;;
61569;SDS011;47462;59.172;17.196;2022-11-14T09:57:41;0.93;;;0.75;;
61569;SDS011;47462;59.172;17.196;2022-11-14T10:00:18;0.60;;;0.60;;
61569;SDS011;47462;59.172;17.196;2022-11-14T10:11:28;1.27;;;0.50;;
61569;SDS011;47462;59.172;17.196;2022-11-14T10:16:41;0.47;;;0.40;;
61569;SDS011;47462;59.172;17.196;2022-11-14T10:35:44;0.38;;;0.38;;
61569;SDS011;47462;59.172;17.196;2022-11-14T10:40:54;0.47;;;0.47;;
61569;SDS011;47462;59.172;17.196;2022-11-14T10:46:02;0.95;;;0.70;;
61569;SDS011;47462;59.172;17.196;2022-11-14T10:51:27;3.08;;;0.73;;
61569;SDS011;47462;59.172;17.196;2022-11-14T10:54:03;0.65;;;0.65;;
61569;SDS011;47462;59.172;17.196;2022-11-14T10:56:50;1.27;;;1.10;;
61569;SDS011;47462;59.172;17.196;2022-11-14T10:59:17;1.10;;;1.00;;
61569;SDS011;47462;59.172;17.196;2022-11-14T11:01:44;1.13;;;1.02;;
61569;SDS011;47462;59.172;17.196;2022-11-14T11:04:23;1.17;;;1.02;;
61569;SDS011;47462;59.172;17.196;2022-11-14T11:06:57;2.47;;;1.40;;
61569;SDS011;47462;59.172;17.196;2022-11-14T11:10:02;2.47;;;1.73;;
61569;SDS011;47462;59.172;17.196;2022-11-14T11:12:48;2.28;;;1.77;;
61569;SDS011;47462;59.172;17.196;2022-11-14T11:15:27;1.63;;;1.50;;
61569;SDS011;47462;59.172;17.196;2022-11-14T11:18:02;3.65;;;1.40;;
61569;SDS011;47462;59.172;17.196;2022-11-14T11:20:37;2.72;;;1.75;;
61569;SDS011;47462;59.172;17.196;2022-11-14T11:23:05;3.75;;;2.10;;
61569;SDS011;47462;59.172;17.196;2022-11-14T11:25:34;2.83;;;2.10;;
61569;SDS011;47462;59.172;17.196;2022-11-14T11:30:59;3.72;;;2.10;;
61569;SDS011;47462;59.172;17.196;2022-11-14T11:33:32;3.35;;;2.28;;
61569;SDS011;47462;59.172;17.196;2022-11-14T11:36:02;5.80;;;2.53;;
61569;SDS011;47462;59.172;17.196;2022-11-14T11:38:31;3.47;;;2.38;;
61569;SDS011;47462;59.172;17.196;2022-11-14T11:41:05;3.72;;;2.17;;
61569;SDS011;47462;59.172;17.196;2022-11-14T11:52:33;4.22;;;2.72;;
61569;SDS011;47462;59.172;17.196;2022-11-14T11:55:44;3.03;;;2.00;;
61569;SDS011;47462;59.172;17.196;2022-11-14T12:00:41;3.85;;;2.50;;
61569;SDS011;47462;59.172;17.196;2022-11-14T12:03:11;3.45;;;2.38;;
61569;SDS011;47462;59.172;17.196;2022-11-14T12:08:19;3.85;;;2.15;;
61569;SDS011;47462;59.172;17.196;2022-11-14T12:10:50;3.90;;;2.60;;
61569;SDS011;47462;59.172;17.196;2022-11-14T12:13:25;5.32;;;2.30;;
61569;SDS011;47462;59.172;17.196;2022-11-14T12:16:14;2.80;;;1.90;;
61569;SDS011;47462;59.172;17.196;2022-11-14T12:21:52;2.95;;;2.03;;
61569;SDS011;47462;59.172;17.196;2022-11-14T12:24:40;3.63;;;2.42;;
61569;SDS011;47462;59.172;17.196;2022-11-14T12:32:59;4.18;;;1.60;;
61569;SDS011;47462;59.172;17.196;2022-11-14T12:35:19;5.38;;;1.83;;
61569;SDS011;47462;59.172;17.196;2022-11-14T12:37:53;5.28;;;1.88;;
61569;SDS011;47462;59.172;17.196;2022-11-14T12:40:54;2.90;;;1.80;;
61569;SDS011;47462;59.172;17.196;2022-11-14T12:46:05;2.85;;;2.05;;
61569;SDS011;47462;59.172;17.196;2022-11-14T12:48:34;4.75;;;2.20;;
61569;SDS011;47462;59.172;17.196;2022-11-14T12:53:51;2.95;;;2.33;;
61569;SDS011;47462;59.172;17.196;2022-11-14T13:07:23;4.55;;;2.53;;
61569;SDS011;47462;59.172;17.196;2022-11-14T13:12:41;3.13;;;2.45;;
61569;SDS011;47462;59.172;17.196;2022-11-14T13:15:49;4.00;;;2.30;;
61569;SDS011;47462;59.172;17.196;2022-11-14T13:21:36;4.28;;;2.42;;
61569;SDS011;47462;59.172;17.196;2022-11-14T13:24:14;4.18;;;2.35;;
61569;SDS011;47462;59.172;17.196;2022-11-14T13:26:44;4.65;;;2.63;;
61569;SDS011;47462;59.172;17.196;2022-11-14T13:32:10;8.13;;;3.05;;
61569;SDS011;47462;59.172;17.196;2022-11-14T13:34:49;4.30;;;3.05;;
61569;SDS011;47462;59.172;17.196;2022-11-14T13:40:16;4.45;;;2.95;;
61569;SDS011;47462;59.172;17.196;2022-11-14T13:43:14;2.75;;;2.47;;
61569;SDS011;47462;59.172;17.196;2022-11-14T13:45:58;4.28;;;3.10;;
61569;SDS011;47462;59.172;17.196;2022-11-14T13:51:24;6.07;;;3.20;;
61569;SDS011;47462;59.172;17.196;2022-11-14T13:53:52;4.18;;;3.13;;
61569;SDS011;47462;59.172;17.196;2022-11-14T13:56:25;4.38;;;3.35;;
61569;SDS011;47462;59.172;17.196;2022-11-14T14:06:49;4.90;;;2.78;;
61569;SDS011;47462;59.172;17.196;2022-11-14T14:09:31;5.47;;;3.47;;
61569;SDS011;47462;59.172;17.196;2022-11-14T14:18:10;5.93;;;2.85;;
61569;SDS011;47462;59.172;17.196;2022-11-14T14:26:25;4.65;;;2.72;;
61569;SDS011;47462;59.172;17.196;2022-11-14T14:31:37;3.95;;;2.50;;
61569;SDS011;47462;59.172;17.196;2022-11-14T14:34:25;6.72;;;2.70;;
61569;SDS011;47462;59.172;17.196;2022-11-14T14:36:55;4.47;;;3.03;;
61569;SDS011;47462;59.172;17.196;2022-11-14T14:39:26;5.63;;;2.88;;
61569;SDS011;47462;59.172;17.196;2022-11-14T14:41:53;3.70;;;2.67;;
61569;SDS011;47462;59.172;17.196;2022-11-14T14:44:22;4.38;;;2.58;;
61569;SDS011;47462;59.172;17.196;2022-11-14T14:46:51;6.20;;;2.80;;
61569;SDS011;47462;59.172;17.196;2022-11-14T14:49:22;4.28;;;2.83;;
61569;SDS011;47462;59.172;17.196;2022-11-14T14:51:52;3.50;;;2.70;;
61569;SDS011;47462;59.172;17.196;2022-11-14T14:54:18;4.22;;;2.70;;
61569;SDS011;47462;59.172;17.196;2022-11-14T14:56:56;6.80;;;3.30;;
61569;SDS011;47462;59.172;17.196;2022-11-14T14:59:25;8.02;;;3.38;;
61569;SDS011;47462;59.172;17.196;2022-11-14T15:01:53;6.40;;;3.40;;
61569;SDS011;47462;59.172;17.196;2022-11-14T15:04:20;6.10;;;3.25;;
61569;SDS011;47462;59.172;17.196;2022-11-14T15:06:47;4.50;;;2.47;;
61569;SDS011;47462;59.172;17.196;2022-11-14T15:09:17;5.97;;;3.38;;
61569;SDS011;47462;59.172;17.196;2022-11-14T15:11:46;3.20;;;2.65;;
61569;SDS011;47462;59.172;17.196;2022-11-14T15:14:16;5.82;;;3.40;;
61569;SDS011;47462;59.172;17.196;2022-11-14T15:16:45;6.10;;;2.90;;
61569;SDS011;47462;59.172;17.196;2022-11-14T15:19:14;5.13;;;2.72;;
61569;SDS011;47462;59.172;17.196;2022-11-14T15:21:42;9.35;;;3.90;;
61569;SDS011;47462;59.172;17.196;2022-11-14T15:24:11;4.72;;;3.53;;
61569;SDS011;47462;59.172;17.196;2022-11-14T15:26:41;6.07;;;3.35;;
61569;SDS011;47462;59.172;17.196;2022-11-14T15:29:21;7.10;;;3.08;;
61569;SDS011;47462;59.172;17.196;2022-11-14T15:31:54;6.07;;;3.63;;
61569;SDS011;47462;59.172;17.196;2022-11-14T15:34:28;6.47;;;3.20;;
61569;SDS011;47462;59.172;17.196;2022-11-14T15:39:40;5.97;;;3.38;;
61569;SDS011;47462;59.172;17.196;2022-11-14T15:42:13;4.53;;;3.60;;
61569;SDS011;47462;59.172;17.196;2022-11-14T15:44:47;5.97;;;3.00;;
61569;SDS011;47462;59.172;17.196;2022-11-14T15:50:02;5.65;;;2.90;;
61569;SDS011;47462;59.172;17.196;2022-11-14T15:52:35;7.60;;;2.83;;
61569;SDS011;47462;59.172;17.196;2022-11-14T15:55:02;6.40;;;3.08;;
61569;SDS011;47462;59.172;17.196;2022-11-14T15:57:29;5.03;;;2.90;;
61569;SDS011;47462;59.172;17.196;2022-11-14T15:59:56;6.07;;;3.20;;
61569;SDS011;47462;59.172;17.196;2022-11-14T16:02:22;5.03;;;2.90;;
61569;SDS011;47462;59.172;17.196;2022-11-14T16:04:52;8.10;;;3.65;;
61569;SDS011;47462;59.172;17.196;2022-11-14T16:07:19;6.75;;;3.08;;
61569;SDS011;47462;59.172;17.196;2022-11-14T16:09:45;10.43;;;3.35;;
61569;SDS011;47462;59.172;17.196;2022-11-14T16:12:10;5.68;;;3.30;;
61569;SDS011;47462;59.172;17.196;2022-11-14T16:14:36;8.70;;;3.30;;
61569;SDS011;47462;59.172;17.196;2022-11-14T16:17:02;8.13;;;4.13;;
61569;SDS011;47462;59.172;17.196;2022-11-14T16:19:28;6.00;;;4.28;;
61569;SDS011;47462;59.172;17.196;2022-11-14T16:21:53;9.60;;;4.90;;
61569;SDS011;47462;59.172;17.196;2022-11-14T16:24:23;7.03;;;3.70;;
61569;SDS011;47462;59.172;17.196;2022-11-14T16:26:48;6.18;;;3.75;;
61569;SDS011;47462;59.172;17.196;2022-11-14T16:29:14;9.02;;;5.13;;
61569;SDS011;47462;59.172;17.196;2022-11-14T16:31:40;9.38;;;4.63;;
61569;SDS011;47462;59.172;17.196;2022-11-14T16:34:06;10.63;;;4.75;;
61569;SDS011;47462;59.172;17.196;2022-11-14T16:36:34;12.02;;;5.20;;
61569;SDS011;47462;59.172;17.196;2022-11-14T16:39:00;10.30;;;5.17;;
61569;SDS011;47462;59.172;17.196;2022-11-14T16:41:27;11.00;;;5.53;;
61569;SDS011;47462;59.172;17.196;2022-11-14T16:43:56;10.85;;;5.22;;
61569;SDS011;47462;59.172;17.196;2022-11-14T16:46:22;7.15;;;4.13;;
61569;SDS011;47462;59.172;17.196;2022-11-14T16:48:48;9.13;;;4.35;;
61569;SDS011;47462;59.172;17.196;2022-11-14T16:51:13;7.85;;;4.68;;
61569;SDS011;47462;59.172;17.196;2022-11-14T16:53:39;6.60;;;4.37;;
61569;SDS011;47462;59.172;17.196;2022-11-14T16:56:04;10.63;;;4.87;;
61569;SDS011;47462;59.172;17.196;2022-11-14T16:58:30;11.07;;;4.45;;